Navig8 Sky — V7ST2 — position and weather

sailwx.info

Track history (hours):
 
Tides and Currents Weather Stations Pressure Air Temp Water Temp Dewpoint Dewpoint Depression Visibility Wind Speed Wind Dir Waves Ship Positions

Navig8 Sky

Last reported at 2018-Jun-11 18:58 UTC. Time now 2018-Jun-22 18:51 UTC.
Position N 35°03' E 129°21'.
Warning: this ship's position is 10 days out of date.

Length 153 m; draft 10.9 m.

Type: Tanker. MMSI: 538006891.

Date/timePositionNaut miles runAvg speedWind from/ knotsBaromVisibWave heightAir tempDewpointWater temp
2018-Jun-11 18:58N 35°03' E 129°21'912.1
2018-Jun-11 18:16N 35°01' E 129°11'310.5
2018-Jun-11 18:00N 35°03' E 129°09'3 6.5
2018-Jun-11 17:30N 35°05' E 129°06'0 0.3
2018-Jun-11 16:58N 35°05' E 129°05'0 0.0
2018-Jun-11 16:28N 35°05' E 129°05'0 0.0
2018-Jun-11 15:58N 35°05' E 129°05'0 0.0
2018-Jun-11 15:28N 35°05' E 129°05'0 0.0
2018-Jun-11 14:58N 35°05' E 129°05'0 0.0
2018-Jun-11 14:28N 35°05' E 129°05'0 0.1
2018-Jun-11 13:58N 35°05' E 129°05'0 0.0
2018-Jun-11 13:28N 35°05' E 129°05'0 0.0
2018-Jun-11 12:58N 35°05' E 129°05'0 0.0
2018-Jun-11 12:28N 35°05' E 129°05'0 0.0
2018-Jun-11 11:58N 35°05' E 129°05'0 0.2
2018-Jun-11 11:30N 35°05' E 129°05'3 5.4
2018-Jun-11 11:00N 35°04' E 129°09'3 6.9
2018-Jun-11 10:30N 35°01' E 129°06'1 0.2
2018-Jun-11 03:52N 35°02' E 129°04'1 2.1
2018-Jun-11 03:30N 35°01' E 129°04'  
2018-Jun-02 16:55N 38°40' E 118°48'613.1
2018-Jun-02 16:26N 38°40' E 118°56'1112.7
2018-Jun-02 15:36N 38°42' E 119°10'112.7
2018-Jun-02 15:31N 38°42' E 119°11'712.8
2018-Jun-02 14:59N 38°41' E 119°20'812.5
2018-Jun-02 14:22N 38°41' E 119°30'512.4
2018-Jun-02 13:58N 38°41' E 119°36'912.5
2018-Jun-02 13:15N 38°41' E 119°47'312.8
2018-Jun-02 13:01N 38°41' E 119°51'1213.0
2018-Jun-02 12:07N 38°40' E 120°06'3813.5
2018-Jun-02 09:18N 38°37' E 120°55'414.9
2018-Jun-02 09:00N 38°34' E 120°59'814.9
2018-Jun-02 08:28N 38°30' E 121°09'2214.6
2018-Jun-02 06:59N 38°20' E 121°32'10413.6
2018-Jun-01 23:19N 37°17' E 123°18'  
Track history (hours):
 
Tides and Currents Weather Stations Pressure Air Temp Water Temp Dewpoint Dewpoint Depression Visibility Wind Speed Wind Dir Waves Ship Positions

Navig8 Sky

Last reported at 2018-Jun-11 18:58 UTC. Time now 2018-Jun-22 18:51 UTC.
Position N 35°03' E 129°21'.
Warning: this ship's position is 10 days out of date.

Length 153 m; draft 10.9 m.

Type: Tanker. MMSI: 538006891.

Date/timePositionNaut miles runAvg speedWind from/ knotsBaromVisibWave heightAir tempDewpointWater temp
2018-Jun-11 18:58N 35°03' E 129°21'912.1
2018-Jun-11 18:16N 35°01' E 129°11'310.5
2018-Jun-11 18:00N 35°03' E 129°09'3 6.5
2018-Jun-11 17:30N 35°05' E 129°06'0 0.3
2018-Jun-11 16:58N 35°05' E 129°05'0 0.0
2018-Jun-11 16:28N 35°05' E 129°05'0 0.0
2018-Jun-11 15:58N 35°05' E 129°05'0 0.0
2018-Jun-11 15:28N 35°05' E 129°05'0 0.0
2018-Jun-11 14:58N 35°05' E 129°05'0 0.0
2018-Jun-11 14:28N 35°05' E 129°05'0 0.1
2018-Jun-11 13:58N 35°05' E 129°05'0 0.0
2018-Jun-11 13:28N 35°05' E 129°05'0 0.0
2018-Jun-11 12:58N 35°05' E 129°05'0 0.0
2018-Jun-11 12:28N 35°05' E 129°05'0 0.0
2018-Jun-11 11:58N 35°05' E 129°05'0 0.2
2018-Jun-11 11:30N 35°05' E 129°05'3 5.4
2018-Jun-11 11:00N 35°04' E 129°09'3 6.9
2018-Jun-11 10:30N 35°01' E 129°06'1 0.2
2018-Jun-11 03:52N 35°02' E 129°04'1 2.1
2018-Jun-11 03:30N 35°01' E 129°04'  
2018-Jun-02 16:55N 38°40' E 118°48'613.1
2018-Jun-02 16:26N 38°40' E 118°56'1112.7
2018-Jun-02 15:36N 38°42' E 119°10'112.7
2018-Jun-02 15:31N 38°42' E 119°11'712.8
2018-Jun-02 14:59N 38°41' E 119°20'812.5
2018-Jun-02 14:22N 38°41' E 119°30'512.4
2018-Jun-02 13:58N 38°41' E 119°36'912.5
2018-Jun-02 13:15N 38°41' E 119°47'312.8
2018-Jun-02 13:01N 38°41' E 119°51'1213.0
2018-Jun-02 12:07N 38°40' E 120°06'3813.5
2018-Jun-02 09:18N 38°37' E 120°55'414.9
2018-Jun-02 09:00N 38°34' E 120°59'814.9
2018-Jun-02 08:28N 38°30' E 121°09'2214.6
2018-Jun-02 06:59N 38°20' E 121°32'10413.6
2018-Jun-01 23:19N 37°17' E 123°18'  

Dump ship's entire track history